sensor_id;sensor_type;location;lat;lon;timestamp;P1;durP1;ratioP1;P2;durP2;ratioP2
19032;SDS011;9649;51.042;13.804;2023-05-23T00:01:48;6.03;;;3.97;;
19032;SDS011;9649;51.042;13.804;2023-05-23T00:06:52;5.28;;;4.28;;
19032;SDS011;9649;51.042;13.804;2023-05-23T00:11:55;11.02;;;4.40;;
19032;SDS011;9649;51.042;13.804;2023-05-23T00:16:58;8.70;;;4.60;;
19032;SDS011;9649;51.042;13.804;2023-05-23T00:22:03;9.77;;;3.83;;
19032;SDS011;9649;51.042;13.804;2023-05-23T00:27:06;7.10;;;3.80;;
19032;SDS011;9649;51.042;13.804;2023-05-23T00:32:08;8.35;;;4.07;;
19032;SDS011;9649;51.042;13.804;2023-05-23T00:37:13;7.60;;;4.40;;
19032;SDS011;9649;51.042;13.804;2023-05-23T00:42:16;8.88;;;4.93;;
19032;SDS011;9649;51.042;13.804;2023-05-23T00:47:19;18.58;;;6.40;;
19032;SDS011;9649;51.042;13.804;2023-05-23T00:52:23;16.98;;;6.30;;
19032;SDS011;9649;51.042;13.804;2023-05-23T00:57:26;11.45;;;6.05;;
19032;SDS011;9649;51.042;13.804;2023-05-23T01:02:29;15.55;;;6.03;;
19032;SDS011;9649;51.042;13.804;2023-05-23T01:07:38;10.40;;;6.03;;
19032;SDS011;9649;51.042;13.804;2023-05-23T01:12:44;13.07;;;6.38;;
19032;SDS011;9649;51.042;13.804;2023-05-23T01:17:57;17.85;;;7.80;;
19032;SDS011;9649;51.042;13.804;2023-05-23T01:23:09;12.75;;;6.93;;
19032;SDS011;9649;51.042;13.804;2023-05-23T01:28:22;15.93;;;7.15;;
19032;SDS011;9649;51.042;13.804;2023-05-23T01:33:30;11.82;;;6.50;;
19032;SDS011;9649;51.042;13.804;2023-05-23T01:38:33;13.38;;;6.25;;
19032;SDS011;9649;51.042;13.804;2023-05-23T01:43:37;12.23;;;6.78;;
19032;SDS011;9649;51.042;13.804;2023-05-23T01:48:40;11.88;;;6.65;;
19032;SDS011;9649;51.042;13.804;2023-05-23T01:53:44;10.57;;;6.25;;
19032;SDS011;9649;51.042;13.804;2023-05-23T01:58:48;10.25;;;6.72;;
19032;SDS011;9649;51.042;13.804;2023-05-23T02:03:51;12.20;;;5.82;;
19032;SDS011;9649;51.042;13.804;2023-05-23T02:08:54;16.83;;;7.50;;
19032;SDS011;9649;51.042;13.804;2023-05-23T02:13:58;9.73;;;6.60;;
19032;SDS011;9649;51.042;13.804;2023-05-23T02:19:02;9.15;;;6.38;;
19032;SDS011;9649;51.042;13.804;2023-05-23T02:24:05;9.60;;;6.90;;
19032;SDS011;9649;51.042;13.804;2023-05-23T02:29:09;10.15;;;6.78;;
19032;SDS011;9649;51.042;13.804;2023-05-23T02:34:12;8.25;;;6.22;;
19032;SDS011;9649;51.042;13.804;2023-05-23T02:39:15;10.25;;;5.70;;
19032;SDS011;9649;51.042;13.804;2023-05-23T02:44:19;8.20;;;5.65;;
19032;SDS011;9649;51.042;13.804;2023-05-23T02:49:22;7.13;;;4.90;;
19032;SDS011;9649;51.042;13.804;2023-05-23T02:54:24;8.65;;;5.63;;
19032;SDS011;9649;51.042;13.804;2023-05-23T02:59:28;10.45;;;5.57;;
19032;SDS011;9649;51.042;13.804;2023-05-23T03:04:31;10.25;;;5.85;;
19032;SDS011;9649;51.042;13.804;2023-05-23T03:09:34;9.73;;;5.95;;
19032;SDS011;9649;51.042;13.804;2023-05-23T03:14:38;9.57;;;6.20;;
19032;SDS011;9649;51.042;13.804;2023-05-23T03:19:41;10.13;;;6.38;;
19032;SDS011;9649;51.042;13.804;2023-05-23T03:24:44;7.10;;;5.43;;
19032;SDS011;9649;51.042;13.804;2023-05-23T03:29:48;9.88;;;6.00;;
19032;SDS011;9649;51.042;13.804;2023-05-23T03:34:51;11.18;;;5.90;;
19032;SDS011;9649;51.042;13.804;2023-05-23T03:39:54;8.38;;;6.50;;
19032;SDS011;9649;51.042;13.804;2023-05-23T03:44:58;8.70;;;5.72;;
19032;SDS011;9649;51.042;13.804;2023-05-23T03:50:01;9.93;;;5.93;;
19032;SDS011;9649;51.042;13.804;2023-05-23T03:55:04;8.80;;;6.60;;
19032;SDS011;9649;51.042;13.804;2023-05-23T04:00:11;10.48;;;6.07;;
19032;SDS011;9649;51.042;13.804;2023-05-23T04:05:15;9.65;;;5.85;;
19032;SDS011;9649;51.042;13.804;2023-05-23T04:10:18;8.30;;;5.45;;
19032;SDS011;9649;51.042;13.804;2023-05-23T04:15:22;10.18;;;6.43;;
19032;SDS011;9649;51.042;13.804;2023-05-23T04:20:25;8.60;;;5.82;;
19032;SDS011;9649;51.042;13.804;2023-05-23T04:25:28;11.30;;;6.03;;
19032;SDS011;9649;51.042;13.804;2023-05-23T04:30:32;8.13;;;6.15;;
19032;SDS011;9649;51.042;13.804;2023-05-23T04:35:35;7.93;;;5.90;;
19032;SDS011;9649;51.042;13.804;2023-05-23T04:40:39;11.73;;;6.90;;
19032;SDS011;9649;51.042;13.804;2023-05-23T04:45:43;11.13;;;6.47;;
19032;SDS011;9649;51.042;13.804;2023-05-23T04:50:46;10.30;;;6.00;;
19032;SDS011;9649;51.042;13.804;2023-05-23T04:55:51;13.55;;;5.95;;
19032;SDS011;9649;51.042;13.804;2023-05-23T05:00:55;8.30;;;5.90;;
19032;SDS011;9649;51.042;13.804;2023-05-23T05:05:58;8.93;;;5.82;;
19032;SDS011;9649;51.042;13.804;2023-05-23T05:11:02;10.80;;;6.75;;
19032;SDS011;9649;51.042;13.804;2023-05-23T05:16:06;9.20;;;6.57;;
19032;SDS011;9649;51.042;13.804;2023-05-23T05:21:09;10.23;;;5.82;;
19032;SDS011;9649;51.042;13.804;2023-05-23T05:26:11;9.63;;;6.18;;
19032;SDS011;9649;51.042;13.804;2023-05-23T05:31:15;7.35;;;5.70;;
19032;SDS011;9649;51.042;13.804;2023-05-23T05:36:19;9.85;;;5.93;;
19032;SDS011;9649;51.042;13.804;2023-05-23T05:41:22;8.25;;;6.32;;
19032;SDS011;9649;51.042;13.804;2023-05-23T05:46:26;14.25;;;6.70;;
19032;SDS011;9649;51.042;13.804;2023-05-23T05:51:29;11.90;;;6.97;;
19032;SDS011;9649;51.042;13.804;2023-05-23T05:56:32;12.98;;;8.05;;
19032;SDS011;9649;51.042;13.804;2023-05-23T06:01:36;11.57;;;7.95;;
19032;SDS011;9649;51.042;13.804;2023-05-23T06:06:42;10.20;;;8.27;;
19032;SDS011;9649;51.042;13.804;2023-05-23T06:11:45;10.80;;;8.27;;
19032;SDS011;9649;51.042;13.804;2023-05-23T06:16:49;11.40;;;9.10;;
19032;SDS011;9649;51.042;13.804;2023-05-23T06:21:52;15.70;;;10.98;;
19032;SDS011;9649;51.042;13.804;2023-05-23T06:26:54;14.45;;;11.63;;
19032;SDS011;9649;51.042;13.804;2023-05-23T06:31:58;14.38;;;11.63;;
19032;SDS011;9649;51.042;13.804;2023-05-23T06:37:01;15.30;;;11.90;;
19032;SDS011;9649;51.042;13.804;2023-05-23T06:42:04;18.63;;;12.45;;
19032;SDS011;9649;51.042;13.804;2023-05-23T06:47:09;19.50;;;11.57;;
19032;SDS011;9649;51.042;13.804;2023-05-23T06:52:15;14.07;;;12.05;;
19032;SDS011;9649;51.042;13.804;2023-05-23T06:57:17;14.55;;;11.85;;
19032;SDS011;9649;51.042;13.804;2023-05-23T07:02:22;15.73;;;11.15;;
19032;SDS011;9649;51.042;13.804;2023-05-23T07:07:24;15.32;;;11.32;;
19032;SDS011;9649;51.042;13.804;2023-05-23T07:12:27;17.33;;;10.35;;
19032;SDS011;9649;51.042;13.804;2023-05-23T07:17:34;13.90;;;10.63;;
19032;SDS011;9649;51.042;13.804;2023-05-23T07:22:37;11.63;;;9.70;;
19032;SDS011;9649;51.042;13.804;2023-05-23T07:27:40;16.40;;;9.65;;
19032;SDS011;9649;51.042;13.804;2023-05-23T07:32:44;12.63;;;9.05;;
19032;SDS011;9649;51.042;13.804;2023-05-23T07:37:48;10.50;;;8.70;;
19032;SDS011;9649;51.042;13.804;2023-05-23T07:42:51;11.20;;;8.40;;
19032;SDS011;9649;51.042;13.804;2023-05-23T07:47:55;11.23;;;8.40;;
19032;SDS011;9649;51.042;13.804;2023-05-23T07:53:01;10.93;;;7.78;;
19032;SDS011;9649;51.042;13.804;2023-05-23T07:58:04;13.85;;;8.40;;
19032;SDS011;9649;51.042;13.804;2023-05-23T08:03:08;12.52;;;8.57;;
19032;SDS011;9649;51.042;13.804;2023-05-23T08:08:12;13.55;;;8.07;;
19032;SDS011;9649;51.042;13.804;2023-05-23T08:13:14;11.15;;;7.25;;
19032;SDS011;9649;51.042;13.804;2023-05-23T08:18:19;11.93;;;8.45;;
19032;SDS011;9649;51.042;13.804;2023-05-23T08:23:22;13.38;;;7.95;;
19032;SDS011;9649;51.042;13.804;2023-05-23T08:28:25;9.02;;;7.28;;
19032;SDS011;9649;51.042;13.804;2023-05-23T08:33:30;13.20;;;8.68;;
19032;SDS011;9649;51.042;13.804;2023-05-23T08:38:32;11.25;;;8.30;;
19032;SDS011;9649;51.042;13.804;2023-05-23T08:43:36;12.68;;;8.73;;
19032;SDS011;9649;51.042;13.804;2023-05-23T08:48:41;12.63;;;8.73;;
19032;SDS011;9649;51.042;13.804;2023-05-23T08:53:44;12.38;;;8.50;;
19032;SDS011;9649;51.042;13.804;2023-05-23T08:58:51;11.75;;;8.68;;
19032;SDS011;9649;51.042;13.804;2023-05-23T09:03:56;11.82;;;8.57;;
19032;SDS011;9649;51.042;13.804;2023-05-23T09:09:05;12.10;;;8.30;;
19032;SDS011;9649;51.042;13.804;2023-05-23T09:14:07;12.80;;;8.80;;
19032;SDS011;9649;51.042;13.804;2023-05-23T09:19:11;10.32;;;8.02;;
19032;SDS011;9649;51.042;13.804;2023-05-23T09:24:15;14.63;;;9.93;;
19032;SDS011;9649;51.042;13.804;2023-05-23T09:29:18;18.83;;;13.25;;
19032;SDS011;9649;51.042;13.804;2023-05-23T09:34:22;17.33;;;14.57;;
19032;SDS011;9649;51.042;13.804;2023-05-23T09:39:25;20.17;;;15.48;;
19032;SDS011;9649;51.042;13.804;2023-05-23T09:44:28;22.35;;;16.98;;
19032;SDS011;9649;51.042;13.804;2023-05-23T09:49:32;26.52;;;20.05;;
19032;SDS011;9649;51.042;13.804;2023-05-23T09:54:35;31.35;;;22.45;;
19032;SDS011;9649;51.042;13.804;2023-05-23T09:59:38;33.05;;;23.95;;
19032;SDS011;9649;51.042;13.804;2023-05-23T10:04:43;32.50;;;22.73;;
19032;SDS011;9649;51.042;13.804;2023-05-23T10:09:47;34.17;;;22.65;;
19032;SDS011;9649;51.042;13.804;2023-05-23T10:14:59;36.85;;;22.40;;
19032;SDS011;9649;51.042;13.804;2023-05-23T10:20:07;29.67;;;19.65;;
19032;SDS011;9649;51.042;13.804;2023-05-23T10:25:12;24.13;;;15.10;;
19032;SDS011;9649;51.042;13.804;2023-05-23T10:30:16;16.40;;;11.35;;
19032;SDS011;9649;51.042;13.804;2023-05-23T10:35:21;17.40;;;9.90;;
19032;SDS011;9649;51.042;13.804;2023-05-23T10:40:33;11.95;;;7.90;;
19032;SDS011;9649;51.042;13.804;2023-05-23T10:45:44;8.38;;;6.28;;
19032;SDS011;9649;51.042;13.804;2023-05-23T10:51:05;10.15;;;7.35;;
19032;SDS011;9649;51.042;13.804;2023-05-23T10:56:10;12.93;;;7.93;;
19032;SDS011;9649;51.042;13.804;2023-05-23T11:01:22;10.32;;;7.43;;
19032;SDS011;9649;51.042;13.804;2023-05-23T11:06:30;12.43;;;6.15;;
19032;SDS011;9649;51.042;13.804;2023-05-23T11:17:14;9.07;;;6.57;;
19032;SDS011;9649;51.042;13.804;2023-05-23T11:22:19;13.38;;;7.65;;
19032;SDS011;9649;51.042;13.804;2023-05-23T11:27:25;11.15;;;7.90;;
19032;SDS011;9649;51.042;13.804;2023-05-23T11:32:29;13.13;;;7.93;;
19032;SDS011;9649;51.042;13.804;2023-05-23T11:37:34;13.18;;;8.27;;
19032;SDS011;9649;51.042;13.804;2023-05-23T11:42:40;11.20;;;7.55;;
19032;SDS011;9649;51.042;13.804;2023-05-23T11:47:43;9.65;;;6.85;;
19032;SDS011;9649;51.042;13.804;2023-05-23T11:52:47;8.60;;;6.30;;
19032;SDS011;9649;51.042;13.804;2023-05-23T11:57:54;8.00;;;6.65;;
19032;SDS011;9649;51.042;13.804;2023-05-23T12:02:57;9.57;;;7.22;;
19032;SDS011;9649;51.042;13.804;2023-05-23T12:08:12;11.43;;;7.50;;
19032;SDS011;9649;51.042;13.804;2023-05-23T12:13:15;9.20;;;7.28;;
19032;SDS011;9649;51.042;13.804;2023-05-23T12:18:18;10.45;;;7.57;;
19032;SDS011;9649;51.042;13.804;2023-05-23T12:23:23;11.38;;;7.93;;
19032;SDS011;9649;51.042;13.804;2023-05-23T12:28:33;6.88;;;6.07;;
19032;SDS011;9649;51.042;13.804;2023-05-23T12:33:37;8.88;;;6.53;;
19032;SDS011;9649;51.042;13.804;2023-05-23T12:38:42;8.10;;;6.90;;
19032;SDS011;9649;51.042;13.804;2023-05-23T12:43:49;7.68;;;6.60;;
19032;SDS011;9649;51.042;13.804;2023-05-23T12:48:53;9.27;;;6.95;;
19032;SDS011;9649;51.042;13.804;2023-05-23T12:53:57;7.85;;;6.90;;
19032;SDS011;9649;51.042;13.804;2023-05-23T12:59:01;9.00;;;6.22;;
19032;SDS011;9649;51.042;13.804;2023-05-23T13:04:04;9.88;;;4.80;;
19032;SDS011;9649;51.042;13.804;2023-05-23T13:09:08;7.20;;;4.00;;
19032;SDS011;9649;51.042;13.804;2023-05-23T13:14:11;5.20;;;3.65;;
19032;SDS011;9649;51.042;13.804;2023-05-23T13:19:14;9.43;;;4.13;;
19032;SDS011;9649;51.042;13.804;2023-05-23T13:24:19;6.45;;;4.35;;
19032;SDS011;9649;51.042;13.804;2023-05-23T13:29:22;5.55;;;4.07;;
19032;SDS011;9649;51.042;13.804;2023-05-23T13:34:24;5.72;;;4.03;;
19032;SDS011;9649;51.042;13.804;2023-05-23T13:39:30;5.72;;;4.40;;
19032;SDS011;9649;51.042;13.804;2023-05-23T13:44:33;8.15;;;5.88;;
19032;SDS011;9649;51.042;13.804;2023-05-23T13:49:35;9.88;;;6.85;;
19032;SDS011;9649;51.042;13.804;2023-05-23T13:54:40;10.35;;;6.97;;
19032;SDS011;9649;51.042;13.804;2023-05-23T13:59:42;6.82;;;6.10;;
19032;SDS011;9649;51.042;13.804;2023-05-23T14:04:45;8.73;;;6.25;;
19032;SDS011;9649;51.042;13.804;2023-05-23T14:09:50;9.63;;;5.95;;
19032;SDS011;9649;51.042;13.804;2023-05-23T14:14:53;11.00;;;6.30;;
19032;SDS011;9649;51.042;13.804;2023-05-23T14:19:56;6.32;;;4.75;;
19032;SDS011;9649;51.042;13.804;2023-05-23T14:25:00;5.82;;;4.70;;
19032;SDS011;9649;51.042;13.804;2023-05-23T14:30:03;7.07;;;4.13;;
19032;SDS011;9649;51.042;13.804;2023-05-23T14:35:07;7.15;;;3.72;;
19032;SDS011;9649;51.042;13.804;2023-05-23T14:40:12;5.55;;;2.70;;
19032;SDS011;9649;51.042;13.804;2023-05-23T14:45:17;3.45;;;2.70;;
19032;SDS011;9649;51.042;13.804;2023-05-23T14:50:20;4.25;;;3.17;;
19032;SDS011;9649;51.042;13.804;2023-05-23T14:55:24;5.03;;;3.00;;
19032;SDS011;9649;51.042;13.804;2023-05-23T15:00:27;6.15;;;3.28;;
19032;SDS011;9649;51.042;13.804;2023-05-23T15:05:30;4.90;;;3.25;;
19032;SDS011;9649;51.042;13.804;2023-05-23T15:10:34;4.97;;;3.53;;
19032;SDS011;9649;51.042;13.804;2023-05-23T15:15:37;5.28;;;3.80;;
19032;SDS011;9649;51.042;13.804;2023-05-23T15:20:41;4.82;;;3.58;;
19032;SDS011;9649;51.042;13.804;2023-05-23T15:25:45;6.38;;;3.47;;
19032;SDS011;9649;51.042;13.804;2023-05-23T15:30:50;6.05;;;4.40;;
19032;SDS011;9649;51.042;13.804;2023-05-23T15:35:53;5.78;;;3.78;;
19032;SDS011;9649;51.042;13.804;2023-05-23T15:41:00;4.15;;;3.60;;
19032;SDS011;9649;51.042;13.804;2023-05-23T15:46:03;4.45;;;3.28;;
19032;SDS011;9649;51.042;13.804;2023-05-23T15:51:06;5.80;;;3.67;;
19032;SDS011;9649;51.042;13.804;2023-05-23T15:56:10;7.18;;;3.50;;
19032;SDS011;9649;51.042;13.804;2023-05-23T16:01:13;3.80;;;2.88;;
19032;SDS011;9649;51.042;13.804;2023-05-23T16:06:16;5.03;;;2.72;;
19032;SDS011;9649;51.042;13.804;2023-05-23T16:11:20;4.63;;;2.70;;
19032;SDS011;9649;51.042;13.804;2023-05-23T16:16:24;2.85;;;2.20;;
19032;SDS011;9649;51.042;13.804;2023-05-23T16:21:27;3.67;;;2.75;;
19032;SDS011;9649;51.042;13.804;2023-05-23T16:26:31;4.47;;;3.65;;
19032;SDS011;9649;51.042;13.804;2023-05-23T16:31:33;7.78;;;4.13;;
19032;SDS011;9649;51.042;13.804;2023-05-23T16:36:36;5.53;;;4.93;;
19032;SDS011;9649;51.042;13.804;2023-05-23T16:41:40;5.15;;;4.63;;
19032;SDS011;9649;51.042;13.804;2023-05-23T16:46:43;8.05;;;4.70;;
19032;SDS011;9649;51.042;13.804;2023-05-23T16:51:46;7.63;;;4.85;;
19032;SDS011;9649;51.042;13.804;2023-05-23T16:56:50;7.53;;;4.53;;
19032;SDS011;9649;51.042;13.804;2023-05-23T17:01:53;6.32;;;4.38;;
19032;SDS011;9649;51.042;13.804;2023-05-23T17:06:56;6.28;;;3.50;;
19032;SDS011;9649;51.042;13.804;2023-05-23T17:17:57;4.07;;;3.50;;
19032;SDS011;9649;51.042;13.804;2023-05-23T17:23:09;5.40;;;3.85;;
19032;SDS011;9649;51.042;13.804;2023-05-23T17:28:20;4.57;;;3.92;;
19032;SDS011;9649;51.042;13.804;2023-05-23T17:33:23;3.90;;;3.50;;
19032;SDS011;9649;51.042;13.804;2023-05-23T17:38:26;5.00;;;3.50;;
19032;SDS011;9649;51.042;13.804;2023-05-23T17:43:30;5.40;;;3.38;;
19032;SDS011;9649;51.042;13.804;2023-05-23T17:48:33;4.35;;;3.90;;
19032;SDS011;9649;51.042;13.804;2023-05-23T17:53:48;4.75;;;3.83;;
19032;SDS011;9649;51.042;13.804;2023-05-23T17:58:55;3.53;;;2.95;;
19032;SDS011;9649;51.042;13.804;2023-05-23T18:03:57;3.05;;;2.80;;
19032;SDS011;9649;51.042;13.804;2023-05-23T18:09:00;3.45;;;2.95;;
19032;SDS011;9649;51.042;13.804;2023-05-23T18:14:04;4.40;;;3.00;;
19032;SDS011;9649;51.042;13.804;2023-05-23T18:19:08;2.70;;;2.25;;
19032;SDS011;9649;51.042;13.804;2023-05-23T18:24:10;3.03;;;2.72;;
19032;SDS011;9649;51.042;13.804;2023-05-23T18:29:14;4.07;;;3.33;;
19032;SDS011;9649;51.042;13.804;2023-05-23T18:34:17;4.72;;;3.60;;
19032;SDS011;9649;51.042;13.804;2023-05-23T18:39:20;4.72;;;3.55;;
19032;SDS011;9649;51.042;13.804;2023-05-23T18:44:24;5.95;;;4.28;;
19032;SDS011;9649;51.042;13.804;2023-05-23T18:49:30;6.13;;;4.85;;
19032;SDS011;9649;51.042;13.804;2023-05-23T18:54:34;7.45;;;5.68;;
19032;SDS011;9649;51.042;13.804;2023-05-23T18:59:41;8.68;;;5.90;;
19032;SDS011;9649;51.042;13.804;2023-05-23T19:04:48;8.30;;;6.15;;
19032;SDS011;9649;51.042;13.804;2023-05-23T19:09:51;12.05;;;7.18;;
19032;SDS011;9649;51.042;13.804;2023-05-23T19:14:55;14.35;;;8.90;;
19032;SDS011;9649;51.042;13.804;2023-05-23T19:19:58;20.48;;;11.07;;
19032;SDS011;9649;51.042;13.804;2023-05-23T19:25:01;19.98;;;11.25;;
19032;SDS011;9649;51.042;13.804;2023-05-23T19:30:09;19.60;;;11.43;;
19032;SDS011;9649;51.042;13.804;2023-05-23T19:35:12;20.98;;;12.70;;
19032;SDS011;9649;51.042;13.804;2023-05-23T19:40:17;24.98;;;12.50;;
19032;SDS011;9649;51.042;13.804;2023-05-23T19:45:23;26.55;;;12.60;;
19032;SDS011;9649;51.042;13.804;2023-05-23T19:50:25;23.58;;;11.45;;
19032;SDS011;9649;51.042;13.804;2023-05-23T19:55:29;21.13;;;11.02;;
19032;SDS011;9649;51.042;13.804;2023-05-23T20:00:33;22.08;;;10.35;;
19032;SDS011;9649;51.042;13.804;2023-05-23T20:05:36;24.90;;;11.02;;
19032;SDS011;9649;51.042;13.804;2023-05-23T20:10:39;25.43;;;10.20;;
19032;SDS011;9649;51.042;13.804;2023-05-23T20:15:44;28.83;;;9.68;;
19032;SDS011;9649;51.042;13.804;2023-05-23T20:20:48;25.50;;;8.82;;
19032;SDS011;9649;51.042;13.804;2023-05-23T20:25:51;25.52;;;8.50;;
19032;SDS011;9649;51.042;13.804;2023-05-23T20:30:55;22.65;;;8.10;;
19032;SDS011;9649;51.042;13.804;2023-05-23T20:35:58;20.35;;;8.18;;
19032;SDS011;9649;51.042;13.804;2023-05-23T20:41:01;17.07;;;7.97;;
19032;SDS011;9649;51.042;13.804;2023-05-23T20:46:08;17.13;;;8.00;;
19032;SDS011;9649;51.042;13.804;2023-05-23T20:51:11;24.13;;;8.60;;
19032;SDS011;9649;51.042;13.804;2023-05-23T20:56:14;20.42;;;6.95;;
19032;SDS011;9649;51.042;13.804;2023-05-23T21:01:18;19.42;;;6.63;;
19032;SDS011;9649;51.042;13.804;2023-05-23T21:06:23;17.88;;;6.40;;
19032;SDS011;9649;51.042;13.804;2023-05-23T21:11:25;19.90;;;6.32;;
19032;SDS011;9649;51.042;13.804;2023-05-23T21:16:29;17.90;;;6.53;;
19032;SDS011;9649;51.042;13.804;2023-05-23T21:21:33;20.98;;;6.07;;
19032;SDS011;9649;51.042;13.804;2023-05-23T21:26:37;18.70;;;6.85;;
19032;SDS011;9649;51.042;13.804;2023-05-23T21:31:41;19.23;;;6.50;;
19032;SDS011;9649;51.042;13.804;2023-05-23T21:36:44;21.65;;;6.20;;
19032;SDS011;9649;51.042;13.804;2023-05-23T21:41:47;17.92;;;6.13;;
19032;SDS011;9649;51.042;13.804;2023-05-23T21:46:51;14.68;;;5.85;;
19032;SDS011;9649;51.042;13.804;2023-05-23T21:51:53;15.85;;;5.85;;
19032;SDS011;9649;51.042;13.804;2023-05-23T21:56:56;17.58;;;6.43;;
19032;SDS011;9649;51.042;13.804;2023-05-23T22:02:00;17.02;;;6.80;;
19032;SDS011;9649;51.042;13.804;2023-05-23T22:07:03;20.40;;;7.32;;
19032;SDS011;9649;51.042;13.804;2023-05-23T22:12:06;15.02;;;6.55;;
19032;SDS011;9649;51.042;13.804;2023-05-23T22:17:11;16.58;;;6.38;;
19032;SDS011;9649;51.042;13.804;2023-05-23T22:22:14;14.68;;;5.72;;
19032;SDS011;9649;51.042;13.804;2023-05-23T22:27:17;15.85;;;5.72;;
19032;SDS011;9649;51.042;13.804;2023-05-23T22:32:21;15.75;;;5.47;;
19032;SDS011;9649;51.042;13.804;2023-05-23T22:37:24;26.33;;;5.30;;
19032;SDS011;9649;51.042;13.804;2023-05-23T22:42:27;19.80;;;5.10;;
19032;SDS011;9649;51.042;13.804;2023-05-23T22:47:31;19.90;;;5.05;;
19032;SDS011;9649;51.042;13.804;2023-05-23T22:52:34;22.13;;;5.10;;
19032;SDS011;9649;51.042;13.804;2023-05-23T22:57:38;14.23;;;4.72;;
19032;SDS011;9649;51.042;13.804;2023-05-23T23:02:42;16.58;;;5.03;;
19032;SDS011;9649;51.042;13.804;2023-05-23T23:07:45;20.88;;;4.47;;
19032;SDS011;9649;51.042;13.804;2023-05-23T23:12:49;15.90;;;4.45;;
19032;SDS011;9649;51.042;13.804;2023-05-23T23:17:57;17.13;;;4.75;;
19032;SDS011;9649;51.042;13.804;2023-05-23T23:23:00;14.52;;;4.55;;
19032;SDS011;9649;51.042;13.804;2023-05-23T23:28:02;17.40;;;4.65;;
19032;SDS011;9649;51.042;13.804;2023-05-23T23:33:06;11.95;;;3.97;;
19032;SDS011;9649;51.042;13.804;2023-05-23T23:38:09;15.32;;;4.35;;
19032;SDS011;9649;51.042;13.804;2023-05-23T23:43:15;13.38;;;3.90;;
19032;SDS011;9649;51.042;13.804;2023-05-23T23:48:20;17.15;;;4.57;;
19032;SDS011;9649;51.042;13.804;2023-05-23T23:53:22;22.23;;;4.05;;
19032;SDS011;9649;51.042;13.804;2023-05-23T23:58:25;14.98;;;3.83;;
